Rockford, IL (61104)

5:55 PM CDT on September 30, 2014 (GMT -0500)
Rockford Plaza | Change Station
CLOSE
Current Station
Personal Weather Station
Location: Rockford, IL
Elevation: 239 m
Nearby Weather Stations

Elev 239 m 42.27 °N, 89.06 °W | Updated 31 seconds ago

Mostly Cloudy
Mostly Cloudy
13.8 °C
Feels Like 13.8 °C
N
3.1
Wind Variable Wind from ENE
Gusts 3.1 km/h

Today
High -- | Low -- °C
--% Chance of Precip.
Yesterday
High -- | Low -- °C
Precip. -- mm
6:52 AM 6:39 PM
Waxing Crescent, 41% visible
Pressure 1017 hPa
Visibility 16.1 kilometers
Clouds Few 6400 m
Mostly Cloudy 7620 m
Dew Point 2 °C
Humidity 45%
Rainfall 0 mm
Snow Depth Not available.
UV 1 out of 12
Pollen 4.30 out of 12
Ozone Good
PM2.5 Good
Flu Activity Not available.
METAR KRFD 302154Z 07009KT 10SM FEW210 BKN250 15/07 A3002 RMK AO2 SLP168 T01500067

More Conditions Fewer Conditions

Pressure 1017 hPa
Visibility 16.1 kilometers
Clouds Few 6400 m
Mostly Cloudy 7620 m
Dew Point 2 °C
Humidity 45%
Rainfall 0 mm
Snow Depth Not available.
UV 1 out of 12
Pollen 4.30 out of 12
Ozone Good
PM2.5 Good
Flu Activity Not available.
METAR KRFD 302154Z 07009KT 10SM FEW210 BKN250 15/07 A3002 RMK AO2 SLP168 T01500067

More Conditions Fewer Conditions

10-Day Weather Forecast

Almanac

Astronomy

Sep. 30, 2014 Rise Set
Actual Time 6:52 AM CDT 6:39 PM CDT
Civil Twilight 6:24 AM CDT 7:07 PM CDT
Nautical Twilight 5:51 AM CDT 7:39 PM CDT
Astronomical Twilight 5:18 AM CDT 8:12 PM CDT
Moon 1:05 PM CDT 11:04 PM CDT
Length of Visible Light 12h 43m
Length of Day
11h 47m
Tomorrow will be 2m 49s shorter.
Waxing Crescent, 41% of the Moon is Illuminated
Today
Waxing Crescent
Oct 1
First Quarter
Oct 8
Full
Oct 15
Last Quarter
Oct 23
New

Today's Extremes

State Highs State Lows

Community

WunderPhotos

Upload Photos

1,757,767 photos uploaded!

Nearby

Air Quality

  Air Quality AQ Index Pollutant
Yesterday Moderate
PM2.5
Yesterday Good
OZONE
Current Good
OZONE
Current Good
PM2.5
Tuesday Good
PM2.5
Wednesday Good
PM2.5
Thursday Moderate
PM2.5
Friday Good
PM2.5
Saturday Good
PM2.5

Snow Depth

Station Depth Elevation
No new snow has been reported.

Earthquake Activity

City Distance Mag. Time & Date
No recent earthquake activity has been reported nearby.
Minimum magnitude displayed is 2.5.

Coastal Water Temperatures

Place Temperature
No Stations Reporting

Nearby Weather Stations